Time;durP1;ratioP1;P1;durP2;ratioP2;P2;SDS_P1;SDS_P2;PMS_P1;PMS_P2;Temp;Humidity;BMP_temperature;BMP_pressure;BME280_temperature;BME280_humidity;BME280_pressure;Samples;Min_cycle;Max_cycle;Signal;HPM_P1;HPM_P2
2022/10/06 00:01:17;;;;;;;7.95;1.00;;;13.50;99.90;;;;;;4967249;28;20086;-72
2022/10/06 00:03:44;;;;;;;5.38;0.93;;;13.50;99.90;;;;;;4954369;28;20425;-72
2022/10/06 00:06:15;;;;;;;6.60;1.17;;;13.50;99.90;;;;;;4941931;29;20442;-72
2022/10/06 00:08:42;;;;;;;6.43;0.90;;;13.50;99.90;;;;;;4936823;29;20171;-76
2022/10/06 00:11:09;;;;;;;4.63;1.20;;;13.50;99.90;;;;;;4934743;28;20089;-72
2022/10/06 00:13:36;;;;;;;4.68;0.85;;;13.40;99.90;;;;;;4952589;28;20061;-72
2022/10/06 00:16:07;;;;;;;7.47;0.90;;;13.50;99.90;;;;;;4934267;28;20086;-72
2022/10/06 00:18:33;;;;;;;3.65;0.93;;;13.50;99.90;;;;;;4952385;28;20445;-71
2022/10/06 00:21:00;;;;;;;4.55;1.20;;;13.50;99.90;;;;;;4934416;28;20101;-71
2022/10/06 00:23:27;;;;;;;6.70;1.20;;;13.40;99.90;;;;;;4937208;28;20385;-71
2022/10/06 00:25:54;;;;;;;6.53;0.82;;;13.40;99.90;;;;;;4967985;28;20069;-71
2022/10/06 00:28:19;;;;;;;5.82;1.20;;;13.40;99.90;;;;;;4971520;28;20182;-70
2022/10/06 00:30:45;;;;;;;4.50;0.65;;;13.30;99.90;;;;;;4961618;28;20129;-87
2022/10/06 00:33:16;;;;;;;8.13;1.20;;;13.30;99.90;;;;;;4948939;28;20042;-71
2022/10/06 00:35:42;;;;;;;7.03;1.58;;;13.30;99.90;;;;;;4946223;28;20054;-71
2022/10/06 00:38:13;;;;;;;6.22;1.25;;;13.30;99.90;;;;;;4934589;28;20129;-73
2022/10/06 00:40:47;;;;;;;5.68;1.50;;;13.20;99.90;;;;;;4953507;28;20059;-71
2022/10/06 00:43:51;;;;;;;10.38;1.30;;;13.20;99.90;;;;;;4949639;28;20047;-71
2022/10/06 00:46:43;;;;;;;7.57;1.30;;;13.20;99.90;;;;;;4968048;28;20050;-71
2022/10/06 00:49:12;;;;;;;9.07;1.80;;;13.20;99.90;;;;;;4956614;28;20129;-90
2022/10/06 00:51:43;;;;;;;7.88;1.35;;;13.20;99.90;;;;;;4974479;28;20131;-71
2022/10/06 00:54:09;;;;;;;8.95;1.50;;;13.20;99.90;;;;;;4938732;28;20102;-70
2022/10/06 00:56:38;;;;;;;7.93;1.25;;;13.20;99.90;;;;;;4951494;28;20094;-71
2022/10/06 00:59:08;;;;;;;9.93;2.10;;;13.20;99.90;;;;;;4950015;28;20058;-71
2022/10/06 01:01:34;;;;;;;12.13;1.95;;;13.20;99.90;;;;;;4951054;28;20695;-70
2022/10/06 01:04:05;;;;;;;4.60;1.20;;;13.10;99.90;;;;;;4953082;28;20497;-72
2022/10/06 01:06:40;;;;;;;9.20;2.28;;;13.10;99.90;;;;;;4951233;28;20459;-70
2022/10/06 01:09:06;;;;;;;8.10;1.73;;;13.00;99.90;;;;;;4946206;28;20082;-70
2022/10/06 01:11:33;;;;;;;10.02;1.70;;;13.00;99.90;;;;;;4960032;28;20086;-71
2022/10/06 01:13:59;;;;;;;7.60;1.50;;;13.00;99.90;;;;;;4968126;28;20050;-70
2022/10/06 01:16:25;;;;;;;7.72;1.65;;;13.00;99.90;;;;;;4947474;28;20039;-70
2022/10/06 01:18:54;;;;;;;13.10;1.63;;;13.00;99.90;;;;;;4935216;28;20038;-70
2022/10/06 01:22:00;;;;;;;12.03;2.80;;;13.00;99.90;;;;;;5133274;27;1262824;-69
2022/10/06 01:24:27;;;;;;;14.65;1.77;;;13.00;99.90;;;;;;5145277;27;20344;-69
2022/10/06 01:26:55;;;;;;;12.07;2.25;;;13.10;99.90;;;;;;5127822;27;20050;-70
2022/10/06 01:29:21;;;;;;;17.20;2.60;;;13.10;99.90;;;;;;5142913;27;20050;-70
2022/10/06 01:31:46;;;;;;;9.70;2.67;;;13.10;99.90;;;;;;5146011;27;20117;-69
2022/10/06 01:34:12;;;;;;;7.30;1.48;;;13.10;99.90;;;;;;5144825;27;20138;-69
2022/10/06 01:36:41;;;;;;;13.77;2.05;;;13.10;99.90;;;;;;5126139;27;20051;-69
2022/10/06 01:39:07;;;;;;;6.57;1.65;;;13.00;99.90;;;;;;5126186;27;20095;-68
2022/10/06 01:41:33;;;;;;;8.85;1.70;;;13.10;99.90;;;;;;5141232;27;20043;-70
2022/10/06 01:43:59;;;;;;;6.43;2.33;;;13.00;99.90;;;;;;5159279;27;20050;-69
2022/10/06 01:46:27;;;;;;;14.85;2.10;;;13.00;99.90;;;;;;5133868;27;20031;-68
2022/10/06 01:48:52;;;;;;;10.27;1.73;;;13.00;99.90;;;;;;5147911;27;20081;-69
2022/10/06 01:51:18;;;;;;;8.05;1.55;;;12.90;99.90;;;;;;5147389;27;20034;-68
2022/10/06 01:53:44;;;;;;;13.20;3.03;;;12.90;99.90;;;;;;5136170;27;20046;-69
2022/10/06 01:56:10;;;;;;;11.65;1.77;;;12.90;99.90;;;;;;5166248;27;20075;-69
2022/10/06 01:58:35;;;;;;;13.07;2.45;;;12.80;99.90;;;;;;5146835;27;20513;-69
2022/10/06 02:01:06;;;;;;;16.77;2.35;;;12.80;99.90;;;;;;5130713;27;20142;-68
2022/10/06 02:03:39;;;;;;;9.45;2.20;;;12.80;99.90;;;;;;5145760;27;20895;-69
2022/10/06 02:06:05;;;;;;;8.50;1.67;;;12.70;99.90;;;;;;5147482;27;20083;-70
2022/10/06 02:08:31;;;;;;;12.82;2.13;;;12.70;99.90;;;;;;5152157;27;20039;-73
2022/10/06 02:10:57;;;;;;;13.75;2.30;;;12.70;99.90;;;;;;5147434;27;20054;-69
2022/10/06 02:13:26;;;;;;;11.95;1.60;;;12.60;99.90;;;;;;5132699;27;20471;-70
2022/10/06 02:15:57;;;;;;;9.50;1.70;;;12.60;99.90;;;;;;5149431;27;20047;-80
2022/10/06 02:18:23;;;;;;;14.40;1.88;;;12.60;99.90;;;;;;5151133;27;20039;-69
2022/10/06 02:20:48;;;;;;;13.23;2.45;;;12.60;99.90;;;;;;5116583;28;20093;-69
2022/10/06 02:23:14;;;;;;;8.32;2.33;;;12.60;99.90;;;;;;5130506;27;20085;-69
2022/10/06 02:25:40;;;;;;;17.45;3.03;;;12.60;99.90;;;;;;5143530;27;20596;-69
2022/10/06 02:28:05;;;;;;;11.18;2.13;;;12.60;99.90;;;;;;5128988;27;20075;-69
2022/10/06 02:30:31;;;;;;;14.65;1.80;;;12.50;99.90;;;;;;5135366;27;20047;-68
2022/10/06 02:32:57;;;;;;;14.68;2.25;;;12.50;99.90;;;;;;5116630;27;20047;-69
2022/10/06 02:35:23;;;;;;;11.18;2.10;;;12.50;99.90;;;;;;5129264;27;20484;-68
2022/10/06 02:37:49;;;;;;;11.45;2.05;;;12.50;99.90;;;;;;5106640;27;20431;-69
2022/10/06 02:40:15;;;;;;;16.42;1.95;;;12.50;99.90;;;;;;5129801;27;20469;-68
2022/10/06 02:42:41;;;;;;;13.88;2.58;;;12.50;99.90;;;;;;5116646;27;20123;-69
2022/10/06 02:45:08;;;;;;;11.15;1.88;;;12.40;99.90;;;;;;5128995;27;20070;-69
2022/10/06 02:47:35;;;;;;;12.55;2.05;;;12.40;99.90;;;;;;5115610;27;20047;-68
2022/10/06 02:50:02;;;;;;;15.90;2.10;;;12.40;99.90;;;;;;5127814;27;20384;-69
2022/10/06 02:52:34;;;;;;;10.77;2.05;;;12.40;99.90;;;;;;5119696;27;20048;-68
2022/10/06 02:55:01;;;;;;;10.55;1.95;;;12.30;99.90;;;;;;5125149;27;20046;-69
2022/10/06 02:57:27;;;;;;;13.23;2.28;;;12.30;99.90;;;;;;5103349;28;20031;-69
2022/10/06 02:59:53;;;;;;;6.78;1.38;;;12.30;99.90;;;;;;5111434;27;20051;-69
2022/10/06 03:02:18;;;;;;;17.85;2.10;;;12.30;99.90;;;;;;5117500;27;20043;-68
2022/10/06 03:04:44;;;;;;;19.45;1.92;;;12.30;99.90;;;;;;5128301;27;20065;-73
2022/10/06 03:07:09;;;;;;;12.93;3.03;;;12.20;99.90;;;;;;5128073;27;20304;-68
2022/10/06 03:09:35;;;;;;;12.43;2.40;;;12.30;99.90;;;;;;5128499;27;20049;-69
2022/10/06 03:12:01;;;;;;;12.52;2.40;;;12.30;99.90;;;;;;5113945;27;20405;-69
2022/10/06 03:14:26;;;;;;;13.13;2.22;;;12.30;99.90;;;;;;5108133;27;20031;-69
2022/10/06 03:16:53;;;;;;;4.72;1.65;;;12.20;99.90;;;;;;5108716;27;20047;-69
2022/10/06 03:19:19;;;;;;;12.38;2.60;;;12.30;99.90;;;;;;5125596;27;20050;-69
2022/10/06 03:21:45;;;;;;;9.25;1.80;;;12.30;99.90;;;;;;5109579;27;20047;-69
2022/10/06 03:24:11;;;;;;;10.63;2.28;;;12.30;99.90;;;;;;5116493;27;20059;-69
2022/10/06 03:26:43;;;;;;;10.52;2.45;;;12.20;99.90;;;;;;5126933;27;20122;-69
2022/10/06 03:29:09;;;;;;;12.02;1.67;;;12.30;99.90;;;;;;5122650;27;20481;-72
2022/10/06 03:31:35;;;;;;;16.85;2.05;;;12.20;99.90;;;;;;5125732;27;20485;-68
2022/10/06 03:34:02;;;;;;;12.88;1.73;;;12.20;99.90;;;;;;5103516;27;20043;-69
2022/10/06 03:36:31;;;;;;;16.40;2.10;;;12.20;99.90;;;;;;5106095;28;20047;-68
2022/10/06 03:38:58;;;;;;;8.85;1.65;;;12.10;99.90;;;;;;5109411;27;20051;-68
2022/10/06 03:41:26;;;;;;;10.57;1.85;;;12.10;99.90;;;;;;5128370;27;20134;-68
2022/10/06 03:43:53;;;;;;;11.60;2.15;;;12.10;99.90;;;;;;5100211;27;20039;-68
2022/10/06 03:46:21;;;;;;;9.68;2.15;;;12.10;99.90;;;;;;5128426;27;20053;-69
2022/10/06 03:48:49;;;;;;;9.40;1.40;;;12.10;99.90;;;;;;5111937;27;20048;-69
2022/10/06 03:51:27;;;;;;;10.40;1.67;;;12.00;99.90;;;;;;5105211;27;20072;-69
2022/10/06 03:53:53;;;;;;;11.57;1.88;;;12.00;99.90;;;;;;5117312;27;20051;-69
2022/10/06 03:56:24;;;;;;;16.17;2.20;;;12.00;99.90;;;;;;5127946;27;20210;-68
2022/10/06 03:59:02;;;;;;;10.88;2.28;;;12.00;99.90;;;;;;5117744;27;20039;-68
2022/10/06 04:01:34;;;;;;;10.27;1.73;;;11.90;99.90;;;;;;5119037;27;20051;-67
2022/10/06 04:04:01;;;;;;;10.25;1.40;;;11.90;99.90;;;;;;5100818;27;20115;-67
2022/10/06 04:06:28;;;;;;;17.17;1.88;;;11.80;99.90;;;;;;5113836;27;20046;-68
2022/10/06 04:08:55;;;;;;;11.27;2.40;;;11.80;99.90;;;;;;5114366;27;20075;-69
2022/10/06 04:11:27;;;;;;;11.60;2.00;;;11.80;99.90;;;;;;5126516;27;20046;-68
2022/10/06 04:13:57;;;;;;;9.75;1.90;;;11.70;99.90;;;;;;5111431;27;20047;-68
2022/10/06 04:16:26;;;;;;;12.65;1.85;;;11.70;99.90;;;;;;5099631;27;20121;-67
2022/10/06 04:18:55;;;;;;;15.50;2.00;;;11.60;99.90;;;;;;5106906;27;20059;-67
2022/10/06 04:21:22;;;;;;;8.32;1.70;;;11.60;99.90;;;;;;5127050;27;20088;-67
2022/10/06 04:23:48;;;;;;;8.75;1.50;;;11.60;99.90;;;;;;5094631;28;20111;-67
2022/10/06 04:26:18;;;;;;;6.28;1.83;;;11.50;99.90;;;;;;5112207;27;20114;-67
2022/10/06 04:28:45;;;;;;;9.02;2.20;;;11.50;99.90;;;;;;5112069;27;20051;-68
2022/10/06 04:31:15;;;;;;;7.57;1.38;;;11.50;99.90;;;;;;5115758;27;20467;-67
2022/10/06 04:33:42;;;;;;;12.35;2.22;;;11.40;99.90;;;;;;5121771;27;20330;-67
2022/10/06 04:36:09;;;;;;;10.43;2.17;;;11.40;99.90;;;;;;5129439;27;20491;-68
2022/10/06 04:38:35;;;;;;;14.60;2.00;;;11.40;99.90;;;;;;5111393;27;20035;-67
2022/10/06 04:41:10;;;;;;;12.52;2.22;;;11.40;99.90;;;;;;5118459;27;20131;-69
2022/10/06 04:43:36;;;;;;;10.60;1.58;;;11.40;99.90;;;;;;5099434;27;20043;-68
2022/10/06 04:46:03;;;;;;;15.00;2.13;;;11.40;99.90;;;;;;5128580;27;20077;-68
2022/10/06 04:48:30;;;;;;;5.90;1.55;;;11.40;99.90;;;;;;5087080;27;20046;-68
2022/10/06 04:51:04;;;;;;;9.02;1.75;;;11.40;99.90;;;;;;5121446;27;20047;-68
2022/10/06 04:53:30;;;;;;;8.30;1.52;;;11.40;99.90;;;;;;5118773;27;20122;-68
2022/10/06 04:56:03;;;;;;;14.10;2.17;;;11.40;99.90;;;;;;5115730;27;20127;-68
2022/10/06 04:58:34;;;;;;;12.65;2.10;;;11.30;99.90;;;;;;5116574;27;20454;-68
2022/10/06 05:01:01;;;;;;;6.93;1.33;;;11.30;99.90;;;;;;5123677;27;20043;-68
2022/10/06 05:03:28;;;;;;;20.25;2.35;;;11.30;99.90;;;;;;5082588;27;20044;-67
2022/10/06 05:06:10;;;;;;;10.73;1.90;;;11.30;99.90;;;;;;5118570;27;20075;-67
2022/10/06 05:08:36;;;;;;;11.23;1.60;;;11.30;99.90;;;;;;5109560;27;20447;-68
2022/10/06 05:11:05;;;;;;;14.25;2.72;;;11.30;99.90;;;;;;5124449;27;20039;-67
2022/10/06 05:13:31;;;;;;;10.73;1.67;;;11.20;99.90;;;;;;5109469;27;20090;-68
2022/10/06 05:16:00;;;;;;;10.32;1.65;;;11.20;99.90;;;;;;5121278;27;20083;-68
2022/10/06 05:18:27;;;;;;;12.30;1.80;;;11.20;99.90;;;;;;5100981;28;20048;-68
2022/10/06 05:21:05;;;;;;;10.27;1.60;;;11.20;99.90;;;;;;5099311;28;20055;-67
2022/10/06 05:23:32;;;;;;;10.65;1.70;;;11.20;99.90;;;;;;5115574;28;20112;-68
2022/10/06 05:25:59;;;;;;;14.95;2.28;;;11.20;99.90;;;;;;5111564;28;20127;-68
2022/10/06 05:28:26;;;;;;;7.20;1.80;;;11.10;99.90;;;;;;5112812;28;20082;-68
2022/10/06 05:31:00;;;;;;;11.25;2.08;;;11.10;99.90;;;;;;5108944;28;20047;-68
2022/10/06 05:33:28;;;;;;;17.08;2.17;;;11.10;99.90;;;;;;5103055;28;20039;-68
2022/10/06 05:35:58;;;;;;;10.98;1.90;;;11.10;99.90;;;;;;5107043;28;20044;-67
2022/10/06 05:38:25;;;;;;;7.35;1.45;;;11.10;99.90;;;;;;5104109;28;20046;-67
2022/10/06 05:41:00;;;;;;;14.43;2.63;;;11.10;99.90;;;;;;5105522;28;20560;-68
2022/10/06 05:43:27;;;;;;;12.75;1.90;;;11.10;99.90;;;;;;5122606;27;20089;-68
2022/10/06 05:45:57;;;;;;;7.53;1.85;;;11.10;99.90;;;;;;5083470;28;20106;-67
2022/10/06 05:48:23;;;;;;;15.40;2.13;;;11.10;99.90;;;;;;5090263;28;20039;-67
2022/10/06 05:51:01;;;;;;;14.38;1.88;;;11.00;99.90;;;;;;5098227;28;20054;-67
2022/10/06 05:53:28;;;;;;;6.40;1.52;;;11.00;99.90;;;;;;5112340;28;20050;-67
2022/10/06 05:56:08;;;;;;;7.95;1.67;;;11.00;99.90;;;;;;5098806;28;20063;-68
2022/10/06 05:58:36;;;;;;;11.38;2.58;;;11.00;99.90;;;;;;5114119;28;20084;-68
2022/10/06 06:01:08;;;;;;;15.45;1.90;;;11.00;99.90;;;;;;5097909;28;20127;-67
2022/10/06 06:03:34;;;;;;;9.35;1.92;;;11.00;99.90;;;;;;5104293;28;20042;-68
2022/10/06 06:05:59;;;;;;;11.05;1.45;;;11.00;99.90;;;;;;5106406;28;20047;-68
2022/10/06 06:08:25;;;;;;;6.15;1.65;;;11.00;99.90;;;;;;5107275;28;20043;-68
2022/10/06 06:10:51;;;;;;;15.32;1.60;;;11.00;99.90;;;;;;5109708;28;20051;-68
2022/10/06 06:13:21;;;;;;;10.32;1.48;;;11.00;99.90;;;;;;5101471;28;20119;-68
2022/10/06 06:15:59;;;;;;;;;;;11.00;99.90;;;;;;5096955;28;20493;-67
2022/10/06 06:18:25;;;;;;;6.95;1.23;;;11.00;99.90;;;;;;5097945;28;19928;-67
2022/10/06 06:20:56;;;;;;;15.10;2.03;;;11.10;99.90;;;;;;5103687;27;20124;-68
2022/10/06 06:23:22;;;;;;;11.35;2.00;;;11.10;99.90;;;;;;5114947;27;20050;-68
2022/10/06 06:26:06;;;;;;;13.00;1.90;;;11.20;99.90;;;;;;5127118;27;20043;-68
2022/10/06 06:28:34;;;;;;;11.73;1.90;;;11.20;99.90;;;;;;5115250;27;20047;-68
2022/10/06 06:31:07;;;;;;;11.50;1.92;;;11.20;99.90;;;;;;5125594;27;20047;-68
2022/10/06 06:33:34;;;;;;;8.18;1.77;;;11.30;99.90;;;;;;5126946;27;20547;-69
2022/10/06 06:36:02;;;;;;;13.45;1.55;;;11.40;99.90;;;;;;5127697;27;20095;-69
2022/10/06 06:38:29;;;;;;;13.45;2.63;;;11.50;99.90;;;;;;5110366;27;20134;-68
2022/10/06 06:40:55;;;;;;;10.75;2.20;;;11.60;99.90;;;;;;5107769;27;20047;-69
2022/10/06 06:43:21;;;;;;;12.52;2.22;;;11.70;99.90;;;;;;5126917;27;20042;-69
2022/10/06 06:45:47;;;;;;;9.32;1.70;;;11.90;99.90;;;;;;5125627;27;20061;-70
2022/10/06 06:48:15;;;;;;;12.55;2.22;;;12.00;99.90;;;;;;5126291;27;20039;-69
2022/10/06 06:50:42;;;;;;;12.68;1.77;;;12.10;99.90;;;;;;5128046;27;20046;-69
2022/10/06 06:53:08;;;;;;;10.63;1.98;;;12.30;99.90;;;;;;5122454;27;20040;-69
2022/10/06 06:55:33;;;;;;;11.95;2.05;;;12.40;99.90;;;;;;5127333;27;20387;-69
2022/10/06 06:57:59;;;;;;;12.13;1.98;;;12.50;99.90;;;;;;5125995;27;20043;-70
2022/10/06 07:00:25;;;;;;;12.55;2.10;;;12.60;99.90;;;;;;5109650;27;20054;-68
2022/10/06 07:02:54;;;;;;;10.82;2.55;;;12.60;99.90;;;;;;5127498;27;20043;-74
2022/10/06 07:05:21;;;;;;;11.88;2.58;;;12.70;99.90;;;;;;5128399;27;20108;-69
2022/10/06 07:07:47;;;;;;;14.15;1.63;;;12.70;99.90;;;;;;5111313;27;20087;-68
2022/10/06 07:10:13;;;;;;;18.38;2.15;;;12.70;99.90;;;;;;5125920;27;20095;-68
2022/10/06 07:12:38;;;;;;;13.00;2.13;;;12.80;99.90;;;;;;5126865;27;20043;-69
2022/10/06 07:26:04;;;;;;;15.68;2.65;;;12.90;99.90;;;;;;5115997;27;20374;-70
2022/10/06 07:28:30;;;;;;;10.18;1.80;;;12.90;99.90;;;;;;5125460;27;20068;-69
2022/10/06 07:30:59;;;;;;;11.85;2.10;;;12.90;99.90;;;;;;5126452;27;20064;-68
2022/10/06 07:33:28;;;;;;;9.52;1.80;;;13.00;99.90;;;;;;5124651;27;20127;-69
2022/10/06 07:35:53;;;;;;;10.07;1.73;;;13.00;99.90;;;;;;5126549;27;20126;-69
2022/10/06 07:38:24;;;;;;;10.98;1.80;;;13.10;99.90;;;;;;5124428;27;20153;-70
2022/10/06 07:40:57;;;;;;;15.55;2.83;;;13.20;99.90;;;;;;5115800;27;20447;-68
2022/10/06 07:43:23;;;;;;;14.27;1.88;;;13.30;99.90;;;;;;5109044;27;20050;-69
2022/10/06 07:45:48;;;;;;;11.45;1.75;;;13.40;99.90;;;;;;5124395;27;20047;-69
2022/10/06 07:48:17;;;;;;;14.07;2.10;;;13.50;99.90;;;;;;5109376;27;20050;-68
2022/10/06 07:50:46;;;;;;;13.80;2.50;;;13.60;99.90;;;;;;5126112;27;20453;-69
2022/10/06 07:53:12;;;;;;;17.15;2.05;;;13.70;99.90;;;;;;5122541;27;20051;-70
2022/10/06 07:55:39;;;;;;;17.15;2.88;;;13.80;99.90;;;;;;5126618;27;20112;-70
2022/10/06 07:58:15;;;;;;;15.50;1.80;;;13.90;99.90;;;;;;5126601;27;20039;-70
2022/10/06 08:00:42;;;;;;;14.70;1.90;;;14.00;99.90;;;;;;5126034;27;20046;-79
2022/10/06 08:03:09;;;;;;;11.35;1.90;;;14.10;99.90;;;;;;5125295;27;20118;-69
2022/10/06 08:05:37;;;;;;;13.13;2.22;;;14.20;99.90;;;;;;5126618;27;20047;-69
2022/10/06 08:08:04;;;;;;;11.80;2.03;;;14.30;99.90;;;;;;5125470;27;20051;-70
2022/10/06 08:10:30;;;;;;;9.30;2.17;;;14.30;99.90;;;;;;5126338;27;20051;-70
2022/10/06 08:12:55;;;;;;;12.95;2.45;;;14.40;99.90;;;;;;5114054;27;20050;-69
2022/10/06 08:15:21;;;;;;;16.08;2.53;;;14.40;99.90;;;;;;5128020;27;20067;-69
2022/10/06 08:17:47;;;;;;;12.02;2.60;;;14.50;99.90;;;;;;5127280;27;20050;-69
2022/10/06 08:20:13;;;;;;;13.32;2.03;;;14.50;99.90;;;;;;5130568;27;20055;-70
2022/10/06 08:22:39;;;;;;;6.90;1.77;;;14.60;99.90;;;;;;5129434;27;20058;-69
2022/10/06 08:25:07;;;;;;;14.85;2.40;;;14.70;99.90;;;;;;5115935;27;20051;-70
2022/10/06 08:27:34;;;;;;;7.15;1.77;;;14.70;99.90;;;;;;5127741;27;20381;-69
2022/10/06 08:30:01;;;;;;;9.90;1.73;;;14.80;99.90;;;;;;5119214;27;20404;-69
2022/10/06 08:32:27;;;;;;;8.35;1.92;;;14.80;99.90;;;;;;5108478;27;20047;-69
2022/10/06 08:34:53;;;;;;;16.85;2.72;;;14.80;99.90;;;;;;5124707;27;20087;-69
2022/10/06 08:37:26;;;;;;;9.93;1.90;;;14.90;99.90;;;;;;5118289;27;20039;-70
2022/10/06 08:39:55;;;;;;;16.33;2.50;;;14.80;99.90;;;;;;5125597;27;20046;-69
2022/10/06 08:42:47;;;;;;;8.90;2.13;;;14.80;99.90;;;;;;5139617;27;20480;-70
2022/10/06 08:45:28;;;;;;;12.13;2.50;;;14.80;99.90;;;;;;5116198;27;20056;-69
2022/10/06 08:48:16;;;;;;;15.00;2.05;;;14.90;99.90;;;;;;5102473;27;20064;-70
2022/10/06 08:51:17;;;;;;;13.80;2.83;;;14.90;99.90;;;;;;5120958;27;20030;-69
2022/10/06 08:54:01;;;;;;;13.50;2.38;;;14.90;99.90;;;;;;5129636;27;20051;-81
2022/10/06 08:56:34;;;;;;;17.52;2.25;;;14.90;99.90;;;;;;5121955;27;20039;-69
2022/10/06 08:59:03;;;;;;;20.58;2.95;;;14.90;99.90;;;;;;5128538;27;20042;-69
2022/10/06 09:01:46;;;;;;;9.98;1.83;;;15.00;99.90;;;;;;5124089;27;20053;-70
2022/10/06 09:04:33;;;;;;;13.60;2.13;;;15.00;99.90;;;;;;5113624;27;20043;-68
2022/10/06 09:07:37;;;;;;;14.07;2.75;;;15.00;99.90;;;;;;5125576;27;20037;-69
2022/10/06 09:10:48;;;;;;;11.57;2.70;;;14.90;99.90;;;;;;5115117;27;20062;-69
2022/10/06 09:13:21;;;;;;;18.90;2.50;;;15.00;99.90;;;;;;5134576;27;20450;-69
2022/10/06 09:15:58;;;;;;;7.55;1.52;;;15.00;99.90;;;;;;5122061;27;20514;-68
2022/10/06 09:18:54;;;;;;;15.77;1.92;;;15.00;99.90;;;;;;5099382;27;20199;-69
2022/10/06 09:21:29;;;;;;;15.90;2.88;;;15.10;99.90;;;;;;5144784;27;20441;-78
2022/10/06 09:24:01;;;;;;;13.43;2.22;;;15.20;99.90;;;;;;5129132;27;20066;-68
2022/10/06 09:26:30;;;;;;;10.23;2.13;;;15.20;99.90;;;;;;5128249;27;20421;-69
2022/10/06 09:28:56;;;;;;;9.90;2.40;;;15.20;98.70;;;;;;5128748;27;20035;-69
2022/10/06 09:31:25;;;;;;;12.23;1.88;;;15.30;99.10;;;;;;5127520;27;20034;-69
2022/10/06 09:33:54;;;;;;;12.93;2.15;;;15.40;99.90;;;;;;5147039;27;20035;-69
2022/10/06 09:36:20;;;;;;;10.32;2.45;;;15.50;99.90;;;;;;5128479;27;20475;-68
2022/10/06 09:38:48;;;;;;;16.20;2.05;;;15.50;97.40;;;;;;5141852;27;20047;-70
2022/10/06 09:41:15;;;;;;;6.13;1.73;;;15.50;94.30;;;;;;5126160;27;20090;-69
2022/10/06 09:43:51;;;;;;;17.85;2.42;;;15.50;95.10;;;;;;5129425;27;20126;-69
2022/10/06 09:46:27;;;;;;;12.68;2.35;;;15.40;95.00;;;;;;5126887;27;20038;-69
2022/10/06 09:49:16;;;;;;;15.10;2.17;;;15.50;92.90;;;;;;5132924;27;20400;-69
2022/10/06 09:52:03;;;;;;;13.30;2.47;;;15.50;92.10;;;;;;5115607;27;20061;-90
2022/10/06 09:54:30;;;;;;;12.57;2.08;;;15.60;94.60;;;;;;5126956;27;20240;-69
2022/10/06 09:56:58;;;;;;;9.48;1.88;;;15.60;91.80;;;;;;5126272;27;20082;-69
2022/10/06 09:59:34;;;;;;;10.23;2.05;;;15.70;92.60;;;;;;5124483;27;20383;-69
2022/10/06 10:02:02;;;;;;;12.10;2.78;;;15.80;86.80;;;;;;5100530;27;20673;-68
2022/10/06 10:04:31;;;;;;;7.97;1.75;;;15.90;91.50;;;;;;5130648;27;20047;-69
2022/10/06 10:07:25;;;;;;;10.63;1.77;;;15.90;88.10;;;;;;5111938;27;20043;-69
2022/10/06 10:09:52;;;;;;;15.48;1.67;;;16.10;88.40;;;;;;5109133;27;20055;-70
2022/10/06 10:12:27;;;;;;;15.18;2.03;;;16.10;81.00;;;;;;5100023;27;20293;-70
2022/10/06 10:15:23;;;;;;;9.73;1.50;;;16.10;79.10;;;;;;5114498;27;20408;-68
2022/10/06 10:17:52;;;;;;;7.43;1.60;;;16.20;91.40;;;;;;5115501;27;20132;-69
2022/10/06 10:20:26;;;;;;;12.77;3.25;;;16.30;84.80;;;;;;5099846;27;20103;-70
2022/10/06 10:22:54;;;;;;;8.38;1.38;;;16.40;89.20;;;;;;5130608;27;20086;-69
2022/10/06 10:25:34;;;;;;;10.77;1.55;;;16.50;79.80;;;;;;5127484;27;20126;-69
2022/10/06 10:28:14;;;;;;;7.78;1.27;;;16.60;80.30;;;;;;5131417;27;20035;-75
2022/10/06 10:30:51;;;;;;;10.43;1.75;;;16.70;79.00;;;;;;5140856;27;20510;-69
2022/10/06 10:33:29;;;;;;;7.03;1.20;;;16.70;71.40;;;;;;5111814;27;20435;-70
2022/10/06 10:35:56;;;;;;;6.60;1.40;;;16.70;67.10;;;;;;5133278;27;20373;-69
2022/10/06 10:38:25;;;;;;;11.20;1.48;;;16.70;63.80;;;;;;5112688;27;20423;-69
2022/10/06 10:41:06;;;;;;;9.38;1.63;;;16.70;63.80;;;;;;5114133;27;20400;-69
2022/10/06 10:43:55;;;;;;;11.23;1.40;;;16.70;67.20;;;;;;5129125;27;20030;-84
2022/10/06 10:46:23;;;;;;;12.40;1.53;;;16.70;68.50;;;;;;5116874;27;20434;-69
2022/10/06 10:49:10;;;;;;;13.85;1.50;;;16.80;64.50;;;;;;5108332;27;20047;-69
2022/10/06 10:51:49;;;;;;;6.30;1.48;;;16.80;60.30;;;;;;5099561;27;20122;-69
2022/10/06 10:54:23;;;;;;;8.82;1.27;;;16.80;61.00;;;;;;5127516;27;20554;-69
2022/10/06 10:56:51;;;;;;;10.77;1.45;;;16.80;64.20;;;;;;5113881;27;20034;-68
2022/10/06 10:59:49;;;;;;;6.93;1.50;;;16.80;61.30;;;;;;5148367;27;20122;-69
2022/10/06 11:02:18;;;;;;;7.30;1.83;;;16.90;70.10;;;;;;5091779;27;20046;-68
2022/10/06 11:04:48;;;;;;;8.05;1.60;;;16.80;61.30;;;;;;5147441;27;20399;-69
2022/10/06 11:07:23;;;;;;;3.65;1.30;;;16.80;63.30;;;;;;5149301;27;20042;-69
2022/10/06 11:10:02;;;;;;;8.85;1.50;;;16.80;70.10;;;;;;5130557;27;20530;-69
2022/10/06 11:12:55;;;;;;;6.60;1.42;;;17.00;68.00;;;;;;5127396;27;20054;-69
2022/10/06 11:15:36;;;;;;;6.90;1.52;;;16.90;58.90;;;;;;5128909;27;20493;-83
2022/10/06 11:18:25;;;;;;;9.63;1.40;;;16.90;51.80;;;;;;5129486;27;20133;-86
2022/10/06 11:20:57;;;;;;;10.65;1.60;;;16.80;62.20;;;;;;5120192;27;20057;-69
2022/10/06 11:23:28;;;;;;;6.25;1.63;;;16.60;60.70;;;;;;5110038;27;20047;-74
2022/10/06 11:26:00;;;;;;;5.05;1.00;;;16.40;64.20;;;;;;5130771;27;20042;-85
2022/10/06 11:28:38;;;;;;;8.27;1.60;;;16.20;68.10;;;;;;5129117;27;20035;-69
2022/10/06 11:31:21;;;;;;;6.78;1.35;;;16.30;66.50;;;;;;5139111;27;20054;-68
2022/10/06 11:33:51;;;;;;;9.07;1.40;;;16.50;69.80;;;;;;5119199;27;20496;-67
2022/10/06 11:36:40;;;;;;;3.90;0.85;;;16.80;68.30;;;;;;5112680;27;20102;-68
2022/10/06 11:39:20;;;;;;;8.15;1.10;;;17.00;62.10;;;;;;5082854;27;20055;-67
2022/10/06 11:41:56;;;;;;;5.45;1.63;;;17.10;58.70;;;;;;5129725;27;20099;-82
2022/10/06 11:44:39;;;;;;;16.38;2.25;;;17.20;57.20;;;;;;5129530;27;20047;-68
2022/10/06 11:47:09;;;;;;;3.50;1.38;;;17.20;54.90;;;;;;5130962;27;20079;-67
2022/10/06 11:49:55;;;;;;;5.78;1.40;;;17.30;55.70;;;;;;5129465;27;20034;-69
2022/10/06 11:52:21;;;;;;;9.05;2.03;;;17.30;59.00;;;;;;5129379;27;20114;-67
2022/10/06 11:54:53;;;;;;;3.72;0.93;;;17.50;62.60;;;;;;5130014;27;20043;-67
2022/10/06 11:57:21;;;;;;;9.90;1.40;;;17.60;53.30;;;;;;5130490;27;20410;-67
2022/10/06 12:00:10;;;;;;;5.20;1.23;;;17.60;55.00;;;;;;5130633;27;20046;-67
2022/10/06 12:02:38;;;;;;;5.18;1.38;;;17.70;41.30;;;;;;5121065;27;20365;-67
2022/10/06 12:05:17;;;;;;;6.20;1.35;;;17.60;42.80;;;;;;5129191;27;20050;-67
2022/10/06 12:07:55;;;;;;;10.27;1.80;;;17.60;46.40;;;;;;5141039;27;20317;-67
2022/10/06 12:10:27;;;;;;;5.03;1.23;;;17.60;55.90;;;;;;5123169;27;20493;-67
2022/10/06 12:13:27;;;;;;;4.88;0.98;;;17.70;42.20;;;;;;5140844;27;20049;-68
2022/10/06 12:16:05;;;;;;;3.20;1.13;;;17.80;41.00;;;;;;5120366;27;20391;-68
2022/10/06 12:18:57;;;;;;;3.13;1.08;;;17.90;37.00;;;;;;5136861;27;20180;-68
2022/10/06 12:21:35;;;;;;;4.38;1.17;;;17.90;31.20;;;;;;5128840;27;20043;-68
2022/10/06 12:24:33;;;;;;;4.30;1.27;;;17.80;35.40;;;;;;5147955;27;20051;-67
2022/10/06 12:27:17;;;;;;;5.07;1.13;;;17.90;32.00;;;;;;5121289;27;20510;-68
2022/10/06 12:29:49;;;;;;;4.05;1.20;;;17.90;33.80;;;;;;5149100;27;20057;-71
2022/10/06 12:32:45;;;;;;;4.30;0.90;;;18.00;36.40;;;;;;5131688;27;20050;-68
2022/10/06 12:35:34;;;;;;;3.55;0.88;;;18.00;33.50;;;;;;5132423;27;20552;-68
2022/10/06 12:38:04;;;;;;;6.10;1.27;;;18.00;28.10;;;;;;5113079;27;20050;-67
2022/10/06 12:40:43;;;;;;;3.65;1.00;;;17.90;28.80;;;;;;5129768;27;20062;-67
2022/10/06 12:43:19;;;;;;;7.75;1.95;;;17.70;35.00;;;;;;5129949;27;20131;-68
2022/10/06 12:45:54;;;;;;;7.60;1.80;;;17.60;35.80;;;;;;5128900;27;20564;-67
2022/10/06 12:48:32;;;;;;;9.15;1.45;;;17.30;34.40;;;;;;5128195;27;20043;-67
2022/10/06 12:51:25;;;;;;;8.00;1.10;;;17.20;31.70;;;;;;5121252;27;20384;-67
2022/10/06 12:54:02;;;;;;;8.80;1.73;;;17.20;43.20;;;;;;5125938;27;20043;-67
2022/10/06 12:56:34;;;;;;;8.23;1.27;;;17.40;42.40;;;;;;5147754;27;20043;-67
2022/10/06 12:59:22;;;;;;;6.70;1.27;;;17.50;49.90;;;;;;5128693;27;20463;-68
2022/10/06 13:01:50;;;;;;;5.43;0.90;;;17.70;34.30;;;;;;5121411;27;20468;-68
2022/10/06 13:04:39;;;;;;;6.03;1.38;;;17.70;33.80;;;;;;5134990;27;20129;-67
2022/10/06 13:07:27;;;;;;;8.80;1.42;;;17.90;29.80;;;;;;5127329;27;20043;-67
2022/10/06 13:10:12;;;;;;;6.07;1.13;;;18.00;30.90;;;;;;5111619;27;20173;-68
2022/10/06 13:12:38;;;;;;;6.80;1.25;;;17.90;28.20;;;;;;5126447;27;20363;-68
2022/10/06 13:15:21;;;;;;;5.82;1.45;;;17.90;28.50;;;;;;5126723;27;20419;-67